createdAt,value
2019-05-29T00:00:42.370Z,1.37
2019-05-29T00:03:10.537Z,1.47
2019-05-29T00:05:38.057Z,1.50
2019-05-29T00:08:06.401Z,1.70
2019-05-29T00:10:34.869Z,1.40
2019-05-29T00:13:02.315Z,1.60
2019-05-29T00:15:33.227Z,1.93
2019-05-29T00:18:02.567Z,1.93
2019-05-29T00:20:31.176Z,1.40
2019-05-29T00:22:58.653Z,1.17
2019-05-29T00:25:26.808Z,1.40
2019-05-29T00:27:54.757Z,1.83
2019-05-29T00:30:22.053Z,1.70
2019-05-29T00:32:49.700Z,1.73
2019-05-29T00:35:17.331Z,1.70
2019-05-29T00:37:45.204Z,1.97
2019-05-29T00:40:13.478Z,2.30
2019-05-29T00:42:41.135Z,2.47
2019-05-29T00:45:09.560Z,2.00
2019-05-29T00:47:37.798Z,2.00
2019-05-29T00:50:05.785Z,2.40
2019-05-29T00:52:34.019Z,2.43
2019-05-29T00:55:01.727Z,2.53
2019-05-29T00:57:29.556Z,2.50
2019-05-29T00:59:57.065Z,2.70
2019-05-29T01:02:24.786Z,2.87
2019-05-29T01:04:52.755Z,2.80
2019-05-29T01:07:20.508Z,2.60
2019-05-29T01:09:48.124Z,2.27
2019-05-29T01:12:17.104Z,2.07
2019-05-29T01:14:49.989Z,2.30
2019-05-29T01:17:14.093Z,2.60
2019-05-29T01:19:42.021Z,2.17
2019-05-29T01:22:09.438Z,2.20
2019-05-29T01:24:37.118Z,2.70
2019-05-29T01:27:04.858Z,2.50
2019-05-29T01:29:32.944Z,2.70
2019-05-29T01:32:00.421Z,2.20
2019-05-29T01:34:28.087Z,1.83
2019-05-29T01:36:55.509Z,2.10
2019-05-29T01:39:23.562Z,2.10
2019-05-29T01:41:53.190Z,2.23
2019-05-29T01:44:21.464Z,2.27
2019-05-29T01:46:49.465Z,2.30
2019-05-29T01:49:17.868Z,2.80
2019-05-29T01:51:45.672Z,2.20
2019-05-29T01:54:14.127Z,1.77
2019-05-29T01:56:41.960Z,1.67
2019-05-29T01:59:09.897Z,2.20
2019-05-29T02:01:38.277Z,2.50
2019-05-29T02:04:06.028Z,2.30
2019-05-29T02:06:33.934Z,2.47
2019-05-29T02:09:01.783Z,2.27
2019-05-29T02:11:32.206Z,2.10
2019-05-29T02:13:58.971Z,2.20
2019-05-29T02:16:27.238Z,2.37
2019-05-29T02:18:55.195Z,2.03
2019-05-29T02:21:24.161Z,2.03
2019-05-29T02:23:52.170Z,2.30
2019-05-29T02:26:20.408Z,2.07
2019-05-29T02:28:47.992Z,3.97
2019-05-29T02:31:17.457Z,2.40
2019-05-29T02:33:45.299Z,2.10
2019-05-29T02:36:13.006Z,2.23
2019-05-29T02:38:41.594Z,1.93
2019-05-29T02:41:09.388Z,2.20
2019-05-29T02:43:37.156Z,2.23
2019-05-29T02:46:05.025Z,2.00
2019-05-29T02:48:32.730Z,2.10
2019-05-29T02:51:00.682Z,2.10
2019-05-29T02:53:30.724Z,2.07
2019-05-29T02:55:58.477Z,2.00
2019-05-29T02:58:27.734Z,2.37
2019-05-29T03:00:56.843Z,2.27
2019-05-29T03:03:26.792Z,2.10
2019-05-29T03:05:55.745Z,2.70
2019-05-29T03:08:24.768Z,2.90
2019-05-29T03:10:54.717Z,2.23
2019-05-29T03:13:23.237Z,3.50
2019-05-29T03:16:08.634Z,4.00
2019-05-29T03:18:23.992Z,2.40
2019-05-29T03:20:52.239Z,2.67
2019-05-29T03:23:20.290Z,2.40
2019-05-29T03:25:48.263Z,2.30
2019-05-29T03:28:16.682Z,1.97
2019-05-29T03:30:46.121Z,2.23
2019-05-29T03:33:14.983Z,2.40
2019-05-29T03:35:48.112Z,2.37
2019-05-29T03:38:17.712Z,2.40
2019-05-29T03:40:46.146Z,2.60
2019-05-29T03:43:14.543Z,2.60
2019-05-29T03:45:42.450Z,2.70
2019-05-29T03:48:10.572Z,2.70
2019-05-29T03:50:38.759Z,3.27
2019-05-29T03:53:10.017Z,2.87
2019-05-29T03:55:38.628Z,3.80
2019-05-29T03:58:06.553Z,3.50
2019-05-29T04:00:41.774Z,3.70
2019-05-29T04:03:04.124Z,4.10
2019-05-29T04:05:33.431Z,3.37
2019-05-29T04:08:02.217Z,3.27
2019-05-29T04:10:32.911Z,3.77
2019-05-29T04:13:01.367Z,3.77
2019-05-29T04:15:33.813Z,2.90
2019-05-29T04:18:08.378Z,3.30
2019-05-29T04:20:38.728Z,3.50
2019-05-29T04:23:07.229Z,3.27
2019-05-29T04:25:40.634Z,3.30
2019-05-29T04:28:07.694Z,3.87
2019-05-29T04:30:36.598Z,3.60
2019-05-29T04:33:05.811Z,3.30
2019-05-29T04:35:34.650Z,3.40
2019-05-29T04:38:02.589Z,3.30
2019-05-29T04:40:32.531Z,3.40
2019-05-29T04:43:01.124Z,3.27
2019-05-29T04:45:30.877Z,3.43
2019-05-29T04:47:59.288Z,4.10
2019-05-29T04:50:29.029Z,4.43
2019-05-29T04:52:57.800Z,6.77
2019-05-29T04:55:25.881Z,7.63
2019-05-29T04:57:54.077Z,4.67
2019-05-29T05:00:22.025Z,3.97
2019-05-29T05:02:50.311Z,4.43
2019-05-29T05:05:19.649Z,3.80
2019-05-29T05:07:47.867Z,3.50
2019-05-29T05:10:48.339Z,4.20
2019-05-29T05:13:16.336Z,3.60
2019-05-29T05:15:45.432Z,3.17
2019-05-29T05:18:13.860Z,3.40
2019-05-29T05:20:44.690Z,2.70
2019-05-29T05:23:12.665Z,3.43
2019-05-29T05:25:41.042Z,3.17
2019-05-29T05:28:09.467Z,3.10
2019-05-29T05:30:38.515Z,3.07
2019-05-29T05:33:06.688Z,3.53
2019-05-29T05:35:34.626Z,3.50
2019-05-29T05:38:02.512Z,3.23
2019-05-29T05:40:34.668Z,3.57
2019-05-29T05:43:02.967Z,3.97
2019-05-29T05:45:30.940Z,3.43
2019-05-29T05:47:58.616Z,3.20
2019-05-29T05:50:26.610Z,5.43
2019-05-29T05:52:55.017Z,41.30
2019-05-29T05:55:23.737Z,44.97
2019-05-29T05:57:51.787Z,5.10
2019-05-29T06:00:31.685Z,4.40
2019-05-29T06:02:59.715Z,4.43
2019-05-29T06:05:27.703Z,3.50
2019-05-29T06:07:57.414Z,3.83
2019-05-29T06:10:25.223Z,3.73
2019-05-29T06:12:53.147Z,3.37
2019-05-29T06:15:20.739Z,3.80
2019-05-29T06:18:10.082Z,2.80
2019-05-29T06:20:18.355Z,3.33
2019-05-29T06:22:46.452Z,3.37
2019-05-29T06:25:14.476Z,2.70
2019-05-29T06:27:43.366Z,2.83
2019-05-29T06:30:11.087Z,2.93
2019-05-29T06:32:39.463Z,2.40
2019-05-29T06:35:07.640Z,2.70
2019-05-29T06:37:35.591Z,2.60
2019-05-29T06:40:04.410Z,2.07
2019-05-29T06:42:33.578Z,3.13
2019-05-29T06:45:02.419Z,3.00
2019-05-29T06:47:34.298Z,2.53
2019-05-29T06:50:02.318Z,2.00
2019-05-29T06:52:31.232Z,1.80
2019-05-29T06:54:59.313Z,2.07
2019-05-29T06:57:27.263Z,2.33
2019-05-29T06:59:54.901Z,2.60
2019-05-29T07:02:22.921Z,2.20
2019-05-29T07:04:53.738Z,2.40
2019-05-29T07:07:22.904Z,2.60
2019-05-29T07:09:50.664Z,2.40
2019-05-29T07:12:18.303Z,2.30
2019-05-29T07:14:46.641Z,2.60
2019-05-29T07:17:14.466Z,2.70
2019-05-29T07:19:55.174Z,2.20
2019-05-29T07:22:12.352Z,2.30
2019-05-29T07:24:41.156Z,2.40
2019-05-29T07:27:13.378Z,2.27
2019-05-29T07:29:41.020Z,2.00
2019-05-29T07:32:09.322Z,2.00
2019-05-29T07:34:53.691Z,2.03
2019-05-29T07:37:08.840Z,1.90
2019-05-29T07:39:37.348Z,1.87
2019-05-29T07:42:05.158Z,2.20
2019-05-29T07:44:33.789Z,1.93
2019-05-29T07:47:01.680Z,2.47
2019-05-29T07:49:39.154Z,2.00
2019-05-29T07:51:59.973Z,2.30
2019-05-29T07:54:31.027Z,1.90
2019-05-29T07:56:58.720Z,2.00
2019-05-29T07:59:29.197Z,1.80
2019-05-29T08:01:57.302Z,1.50
2019-05-29T08:04:25.698Z,1.63
2019-05-29T08:06:54.678Z,2.17
2019-05-29T08:09:22.747Z,1.80
2019-05-29T08:11:50.891Z,2.37
2019-05-29T08:14:19.365Z,1.57
2019-05-29T08:16:48.127Z,1.50
2019-05-29T08:19:15.954Z,2.20
2019-05-29T08:21:44.335Z,1.97
2019-05-29T08:24:12.272Z,1.60
2019-05-29T08:26:42.920Z,1.20
2019-05-29T08:29:10.669Z,1.57
2019-05-29T08:31:38.777Z,1.33
2019-05-29T08:34:06.743Z,1.27
2019-05-29T08:36:34.433Z,1.40
2019-05-29T08:39:06.406Z,1.50
2019-05-29T08:41:35.280Z,1.60
2019-05-29T08:44:06.668Z,0.90
2019-05-29T08:46:34.827Z,1.40
2019-05-29T08:49:03.936Z,1.40
2019-05-29T08:51:31.849Z,1.30
2019-05-29T08:54:23.073Z,0.90
2019-05-29T08:56:36.895Z,0.80
2019-05-29T08:59:05.119Z,1.10
2019-05-29T09:01:33.627Z,0.97
2019-05-29T09:04:01.786Z,1.40
2019-05-29T09:06:29.642Z,1.40
2019-05-29T09:08:58.138Z,1.10
2019-05-29T09:11:26.150Z,1.07
2019-05-29T09:13:54.645Z,1.00
2019-05-29T09:16:22.625Z,1.30
2019-05-29T09:18:50.735Z,1.30
2019-05-29T09:21:19.258Z,1.03
2019-05-29T09:23:48.187Z,1.53
2019-05-29T09:26:22.987Z,1.60
2019-05-29T09:28:49.214Z,2.10
2019-05-29T09:31:18.685Z,1.40
2019-05-29T09:33:47.865Z,1.40
2019-05-29T09:36:17.175Z,1.47
2019-05-29T09:38:45.975Z,1.30
2019-05-29T09:41:15.722Z,1.60
2019-05-29T09:43:58.354Z,1.10
2019-05-29T09:46:15.197Z,1.53
2019-05-29T09:48:49.781Z,1.50
2019-05-29T09:51:21.054Z,1.30
2019-05-29T09:53:43.034Z,1.30
2019-05-29T09:56:11.263Z,1.47
2019-05-29T09:58:39.139Z,1.30
2019-05-29T10:01:21.891Z,1.47
2019-05-29T10:03:37.911Z,1.33
2019-05-29T10:06:09.191Z,1.30
2019-05-29T10:08:35.137Z,1.50
2019-05-29T10:11:08.683Z,1.30
2019-05-29T10:13:33.086Z,1.40
2019-05-29T10:16:02.752Z,1.23
2019-05-29T10:18:32.711Z,0.93
2019-05-29T10:21:01.268Z,0.90
2019-05-29T10:23:28.884Z,1.40
2019-05-29T10:25:58.418Z,1.00
2019-05-29T10:28:27.290Z,1.60
2019-05-29T10:30:55.170Z,12.03
2019-05-29T10:33:23.081Z,17.90
2019-05-29T10:35:53.312Z,11.93
2019-05-29T10:38:20.259Z,14.87
2019-05-29T10:41:00.480Z,17.67
2019-05-29T10:43:33.622Z,8.10
2019-05-29T10:45:49.906Z,5.83
2019-05-29T10:48:17.588Z,4.63
2019-05-29T10:50:49.378Z,4.30
2019-05-29T10:53:15.933Z,3.30
2019-05-29T10:55:44.449Z,2.73
2019-05-29T10:58:12.529Z,2.47
2019-05-29T11:00:40.166Z,2.73
2019-05-29T11:03:09.223Z,2.63
2019-05-29T11:05:37.332Z,13.07
2019-05-29T11:08:05.108Z,7.90
2019-05-29T11:10:32.872Z,4.83
2019-05-29T11:13:01.369Z,4.07
2019-05-29T11:15:30.024Z,3.73
2019-05-29T11:17:58.315Z,3.00
2019-05-29T11:20:26.070Z,2.10
2019-05-29T11:22:53.941Z,2.60
2019-05-29T11:25:26.680Z,2.10
2019-05-29T11:27:53.039Z,2.10
2019-05-29T11:30:21.752Z,2.30
2019-05-29T11:32:54.634Z,2.57
2019-05-29T11:35:23.303Z,2.83
2019-05-29T11:37:52.481Z,2.97
2019-05-29T11:40:20.979Z,2.00
2019-05-29T11:42:48.779Z,2.30
2019-05-29T11:45:16.849Z,1.97
2019-05-29T11:47:44.787Z,2.50
2019-05-29T11:50:19.269Z,2.10
2019-05-29T11:52:43.587Z,2.77
2019-05-29T11:55:14.470Z,2.30
2019-05-29T11:57:42.499Z,2.37
2019-05-29T12:00:19.382Z,2.47
2019-05-29T12:02:41.277Z,1.97
2019-05-29T12:05:09.924Z,1.73
2019-05-29T12:07:38.988Z,1.77
2019-05-29T12:10:08.556Z,12.03
2019-05-29T12:12:36.567Z,33.43
2019-05-29T12:15:13.440Z,18.10
2019-05-29T12:17:36.749Z,12.90
2019-05-29T12:20:23.893Z,7.33
2019-05-29T12:22:35.450Z,5.23
2019-05-29T12:25:03.702Z,4.03
2019-05-29T12:27:31.786Z,2.53
2019-05-29T12:30:00.861Z,1.60
2019-05-29T12:32:28.843Z,2.00
2019-05-29T12:34:58.227Z,2.00
2019-05-29T12:37:26.776Z,1.30
2019-05-29T12:39:55.404Z,1.60
2019-05-29T12:42:23.212Z,1.70
2019-05-29T12:44:51.390Z,1.20
2019-05-29T12:47:19.194Z,1.30
2019-05-29T12:49:47.569Z,1.50
2019-05-29T12:52:17.761Z,1.13
2019-05-29T12:54:46.089Z,1.00
2019-05-29T12:57:14.142Z,1.10
2019-05-29T12:59:43.126Z,0.90
2019-05-29T13:02:11.120Z,1.20
2019-05-29T13:05:06.408Z,0.90
2019-05-29T13:07:08.340Z,1.00
2019-05-29T13:09:36.591Z,1.13
2019-05-29T13:12:04.918Z,1.33
2019-05-29T13:14:32.947Z,1.10
2019-05-29T13:17:02.917Z,1.30
2019-05-29T13:19:30.975Z,1.10
2019-05-29T13:21:59.329Z,1.47
2019-05-29T13:24:27.288Z,1.30
2019-05-29T13:26:55.579Z,1.20
2019-05-29T13:29:23.681Z,15.73
2019-05-29T13:31:56.126Z,14.03
2019-05-29T13:34:23.825Z,11.73
2019-05-29T13:36:52.976Z,8.53
2019-05-29T13:39:22.153Z,6.07
2019-05-29T13:41:50.385Z,5.40
2019-05-29T13:44:17.957Z,2.30
2019-05-29T13:46:46.043Z,2.47
2019-05-29T13:49:15.445Z,2.10
2019-05-29T13:51:43.341Z,2.07
2019-05-29T13:54:16.910Z,1.20
2019-05-29T13:56:42.608Z,1.30
2019-05-29T13:59:10.662Z,1.50
2019-05-29T14:01:39.369Z,1.33
2019-05-29T14:04:08.620Z,1.90
2019-05-29T14:06:37.550Z,1.33
2019-05-29T14:09:07.615Z,1.10
2019-05-29T14:11:36.012Z,1.00
2019-05-29T14:14:07.999Z,1.40
2019-05-29T14:16:35.313Z,1.60
2019-05-29T14:19:04.731Z,1.50
2019-05-29T14:21:32.736Z,1.50
2019-05-29T14:24:02.798Z,2.50
2019-05-29T14:26:31.661Z,12.03
2019-05-29T14:28:59.617Z,8.90
2019-05-29T14:31:28.036Z,6.70
2019-05-29T14:33:57.711Z,4.43
2019-05-29T14:36:26.287Z,4.10
2019-05-29T14:38:58.934Z,2.80
2019-05-29T14:41:27.471Z,6.77
2019-05-29T14:43:55.285Z,13.83
2019-05-29T14:46:23.288Z,9.50
2019-05-29T14:48:51.687Z,4.80
2019-05-29T14:51:19.835Z,3.53
2019-05-29T14:53:47.910Z,3.03
2019-05-29T14:56:16.830Z,2.40
2019-05-29T14:58:48.666Z,1.70
2019-05-29T15:01:16.688Z,1.53
2019-05-29T15:03:47.884Z,1.50
2019-05-29T15:06:16.151Z,1.27
2019-05-29T15:08:44.936Z,1.03
2019-05-29T15:11:14.036Z,1.47
2019-05-29T15:13:48.875Z,1.47
2019-05-29T15:16:16.936Z,10.17
2019-05-29T15:18:48.219Z,20.70
2019-05-29T15:21:15.954Z,10.57
2019-05-29T15:23:44.254Z,5.50
2019-05-29T15:26:13.528Z,3.43
2019-05-29T15:28:42.012Z,2.13
2019-05-29T15:31:12.344Z,2.20
2019-05-29T15:33:40.261Z,1.60
2019-05-29T15:36:08.637Z,1.57
2019-05-29T15:38:36.744Z,1.30
2019-05-29T15:41:06.542Z,1.00
2019-05-29T15:43:34.943Z,1.13
2019-05-29T15:46:04.137Z,1.07
2019-05-29T15:48:32.828Z,1.27
2019-05-29T15:51:01.050Z,1.20
2019-05-29T15:53:32.309Z,1.50
2019-05-29T15:56:16.881Z,1.60
2019-05-29T15:58:29.833Z,0.93
2019-05-29T16:00:57.637Z,1.27
2019-05-29T16:03:29.342Z,1.80
2019-05-29T16:05:57.733Z,1.73
2019-05-29T16:08:25.718Z,1.30
2019-05-29T16:10:54.539Z,1.27
2019-05-29T16:13:22.760Z,1.27
2019-05-29T16:15:51.488Z,2.07
2019-05-29T16:18:27.297Z,1.70
2019-05-29T16:20:48.973Z,1.40
2019-05-29T16:23:32.346Z,1.00
2019-05-29T16:25:49.267Z,1.13
2019-05-29T16:28:17.310Z,1.27
2019-05-29T16:30:45.248Z,1.77
2019-05-29T16:33:12.966Z,1.37
2019-05-29T16:35:41.263Z,2.00
2019-05-29T16:38:09.426Z,1.83
2019-05-29T16:40:37.399Z,1.07
2019-05-29T16:43:05.516Z,1.27
2019-05-29T16:45:33.173Z,1.27
2019-05-29T16:48:01.169Z,1.20
2019-05-29T16:50:28.994Z,1.00
2019-05-29T16:52:56.931Z,1.73
2019-05-29T16:55:24.794Z,1.23
2019-05-29T16:57:53.171Z,1.30
2019-05-29T17:00:24.212Z,1.23
2019-05-29T17:02:52.545Z,1.07
2019-05-29T17:05:22.032Z,0.90
2019-05-29T17:07:49.999Z,1.60
2019-05-29T17:10:20.389Z,1.20
2019-05-29T17:12:48.271Z,1.13
2019-05-29T17:15:17.199Z,2.80
2019-05-29T17:17:46.632Z,59.80
2019-05-29T17:20:18.712Z,35.97
2019-05-29T17:22:46.633Z,20.83
2019-05-29T17:25:14.864Z,10.43
2019-05-29T17:27:42.481Z,6.17
2019-05-29T17:30:10.350Z,4.63
2019-05-29T17:32:38.350Z,3.70
2019-05-29T17:35:06.963Z,1.80
2019-05-29T17:37:34.756Z,1.60
2019-05-29T17:40:02.680Z,1.60
2019-05-29T17:42:30.526Z,1.27
2019-05-29T17:44:58.503Z,1.10
2019-05-29T17:47:26.469Z,1.20
2019-05-29T17:49:54.272Z,1.27
2019-05-29T17:52:21.873Z,1.20
2019-05-29T17:54:49.853Z,1.53
2019-05-29T17:57:18.196Z,1.13
2019-05-29T17:59:46.336Z,1.30
2019-05-29T18:02:14.403Z,1.20
2019-05-29T18:04:42.042Z,1.30
2019-05-29T18:07:09.871Z,4.17
2019-05-29T18:09:39.029Z,45.17
2019-05-29T18:12:06.983Z,44.53
2019-05-29T18:14:37.947Z,25.13
2019-05-29T18:17:07.102Z,13.67
2019-05-29T18:19:34.775Z,10.40
2019-05-29T18:22:04.435Z,7.97
2019-05-29T18:24:32.052Z,4.73
2019-05-29T18:27:00.113Z,3.67
2019-05-29T18:29:29.630Z,3.43
2019-05-29T18:31:59.705Z,2.30
2019-05-29T18:34:29.576Z,2.30
2019-05-29T18:36:57.531Z,1.53
2019-05-29T18:39:26.324Z,1.40
2019-05-29T18:41:55.879Z,1.50
2019-05-29T18:44:24.764Z,1.57
2019-05-29T18:46:52.662Z,1.80
2019-05-29T18:49:20.466Z,1.20
2019-05-29T18:51:48.526Z,1.30
2019-05-29T18:54:17.609Z,1.23
2019-05-29T18:57:13.265Z,1.27
2019-05-29T18:59:16.711Z,1.30
2019-05-29T19:01:44.622Z,1.23
2019-05-29T19:04:13.177Z,1.57
2019-05-29T19:06:42.291Z,1.40
2019-05-29T19:09:10.134Z,1.60
2019-05-29T19:11:38.110Z,1.20
2019-05-29T19:14:05.780Z,1.50
2019-05-29T19:16:33.863Z,1.30
2019-05-29T19:19:02.364Z,1.07
2019-05-29T19:21:30.606Z,1.00
2019-05-29T19:23:58.772Z,1.30
2019-05-29T19:26:26.738Z,1.23
2019-05-29T19:28:55.318Z,1.27
2019-05-29T19:31:23.069Z,1.23
2019-05-29T19:33:51.004Z,1.27
2019-05-29T19:36:19.034Z,1.30
2019-05-29T19:38:49.742Z,1.80
2019-05-29T19:41:18.359Z,1.20
2019-05-29T19:43:46.310Z,1.50
2019-05-29T19:46:14.502Z,1.70
2019-05-29T19:48:42.578Z,6.83
2019-05-29T19:51:10.828Z,14.33
2019-05-29T19:53:39.058Z,15.03
2019-05-29T19:56:07.200Z,10.97
2019-05-29T19:58:36.132Z,7.17
2019-05-29T20:01:05.367Z,4.77
2019-05-29T20:03:34.632Z,3.50
2019-05-29T20:06:03.429Z,2.50
2019-05-29T20:08:34.576Z,2.33
2019-05-29T20:11:01.451Z,2.13
2019-05-29T20:13:29.867Z,1.87
2019-05-29T20:15:57.852Z,1.93
2019-05-29T20:18:25.458Z,1.97
2019-05-29T20:20:53.650Z,1.60
2019-05-29T20:23:22.045Z,1.70
2019-05-29T20:25:50.089Z,2.10
2019-05-29T20:28:18.062Z,2.23
2019-05-29T20:30:45.928Z,1.80
2019-05-29T20:33:14.137Z,1.70
2019-05-29T20:35:43.198Z,2.10
2019-05-29T20:38:11.669Z,1.83
2019-05-29T20:40:42.229Z,1.77
2019-05-29T20:43:10.507Z,2.30
2019-05-29T20:45:37.927Z,1.90
2019-05-29T20:48:05.601Z,1.70
2019-05-29T20:50:34.696Z,1.60
2019-05-29T20:53:02.715Z,2.57
2019-05-29T20:55:31.347Z,1.90
2019-05-29T20:57:59.488Z,2.03
2019-05-29T21:00:28.465Z,1.60
2019-05-29T21:02:56.384Z,1.60
2019-05-29T21:05:23.895Z,1.43
2019-05-29T21:07:51.724Z,2.57
2019-05-29T21:10:20.088Z,2.30
2019-05-29T21:12:48.373Z,2.53
2019-05-29T21:15:16.310Z,2.30
2019-05-29T21:17:44.417Z,1.90
2019-05-29T21:20:13.325Z,1.60
2019-05-29T21:22:40.861Z,1.40
2019-05-29T21:25:11.882Z,2.30
2019-05-29T21:27:42.836Z,1.87
2019-05-29T21:30:08.222Z,1.60
2019-05-29T21:32:37.797Z,1.70
2019-05-29T21:35:06.104Z,2.00
2019-05-29T21:37:33.695Z,1.70
2019-05-29T21:40:01.775Z,1.73
2019-05-29T21:42:29.828Z,1.80
2019-05-29T21:44:57.754Z,2.40
2019-05-29T21:47:25.803Z,2.00
2019-05-29T21:49:53.493Z,1.53
2019-05-29T21:52:21.413Z,1.93
2019-05-29T21:54:49.583Z,1.77
2019-05-29T21:57:17.067Z,1.77
2019-05-29T21:59:45.891Z,1.57
2019-05-29T22:02:15.842Z,1.80
2019-05-29T22:04:44.573Z,1.60
2019-05-29T22:07:12.427Z,1.73
2019-05-29T22:09:40.047Z,1.53
2019-05-29T22:12:07.574Z,1.60
2019-05-29T22:14:35.752Z,1.80
2019-05-29T22:17:03.398Z,1.97
2019-05-29T22:19:31.308Z,1.70
2019-05-29T22:21:59.227Z,2.00
2019-05-29T22:24:26.990Z,1.77
2019-05-29T22:26:55.521Z,1.73
2019-05-29T22:29:22.971Z,1.50
2019-05-29T22:31:51.301Z,1.97
2019-05-29T22:34:19.319Z,2.20
2019-05-29T22:36:46.992Z,2.10
2019-05-29T22:39:14.931Z,1.83
2019-05-29T22:41:43.059Z,2.17
2019-05-29T22:44:10.778Z,1.80
2019-05-29T22:46:38.613Z,1.57
2019-05-29T22:49:06.682Z,1.70
2019-05-29T22:51:36.135Z,1.53
2019-05-29T22:54:04.741Z,1.80
2019-05-29T22:56:32.650Z,2.10
2019-05-29T22:59:00.230Z,1.63
2019-05-29T23:01:28.115Z,1.30
2019-05-29T23:03:56.085Z,1.70
2019-05-29T23:06:23.611Z,1.20
2019-05-29T23:08:52.128Z,1.73
2019-05-29T23:11:19.832Z,1.43
2019-05-29T23:13:47.578Z,1.47
2019-05-29T23:16:15.071Z,1.90
2019-05-29T23:18:42.692Z,1.87
2019-05-29T23:21:10.713Z,1.57
2019-05-29T23:23:39.221Z,1.53
2019-05-29T23:26:07.099Z,1.90
2019-05-29T23:28:34.712Z,1.40
2019-05-29T23:31:03.627Z,1.80
2019-05-29T23:33:31.515Z,1.57
2019-05-29T23:35:59.682Z,1.53
2019-05-29T23:38:27.545Z,1.30
2019-05-29T23:40:55.415Z,1.97
2019-05-29T23:43:22.980Z,1.50
2019-05-29T23:45:50.520Z,1.70
2019-05-29T23:48:27.523Z,1.80
2019-05-29T23:50:55.710Z,1.87
2019-05-29T23:53:23.569Z,1.83
2019-05-29T23:55:51.084Z,1.30
2019-05-29T23:58:21.365Z,1.80
